Time;durP1;ratioP1;P1;durP2;ratioP2;P2;SDS_P1;SDS_P2;PMS_P1;PMS_P2;Temp;Humidity;BMP_temperature;BMP_pressure;BME280_temperature;BME280_humidity;BME280_pressure;Samples;Min_cycle;Max_cycle;Signal;HPM_P1;HPM_P2
2023/06/07 00:01:17;;;;;;;7.25;3.35;;;;;;;16.95;62.39;101256.75;5073616;28;20044;-69
2023/06/07 00:03:44;;;;;;;9.02;3.63;;;;;;;17.05;62.10;101257.28;5072796;28;20067;-69
2023/06/07 00:06:13;;;;;;;4.82;3.05;;;;;;;17.04;61.34;101252.91;5073298;28;20119;-69
2023/06/07 00:08:43;;;;;;;6.10;3.60;;;;;;;17.00;61.10;101257.88;5071860;28;20411;-69
2023/06/07 00:11:10;;;;;;;8.90;3.50;;;;;;;17.09;60.38;101264.00;5069606;28;20060;-68
2023/06/07 00:13:36;;;;;;;11.43;3.63;;;;;;;16.94;60.41;101260.50;5073528;28;20048;-67
2023/06/07 00:16:03;;;;;;;9.73;3.40;;;;;;;16.85;60.34;101259.75;5072730;28;20458;-66
2023/06/07 00:18:30;;;;;;;5.40;3.28;;;;;;;16.90;60.15;101265.47;5052815;28;20094;-66
2023/06/07 00:20:57;;;;;;;10.43;3.08;;;;;;;16.87;60.15;101261.25;5052949;28;20492;-66
2023/06/07 00:23:26;;;;;;;5.32;3.22;;;;;;;16.98;60.10;101265.34;5053173;28;20144;-66
2023/06/07 00:25:53;;;;;;;5.03;2.85;;;;;;;16.86;59.51;101264.16;5052923;28;20067;-66
2023/06/07 00:28:19;;;;;;;9.13;3.35;;;;;;;16.75;59.98;101261.91;5052968;28;20068;-67
2023/06/07 00:30:46;;;;;;;10.50;3.80;;;;;;;16.86;60.02;101261.44;5052636;28;20048;-68
2023/06/07 00:33:13;;;;;;;7.18;3.33;;;;;;;16.86;59.80;101256.03;5052506;28;20049;-68
2023/06/07 00:35:39;;;;;;;4.32;3.03;;;;;;;16.88;59.18;101265.63;5052898;28;20531;-68
2023/06/07 00:38:06;;;;;;;7.82;3.13;;;;;;;16.94;59.20;101260.50;5052803;28;20049;-67
2023/06/07 00:40:32;;;;;;;10.38;3.28;;;;;;;16.75;59.14;101261.91;5053588;28;20098;-68
2023/06/07 00:42:59;;;;;;;10.63;3.50;;;;;;;16.73;59.16;101259.41;5052719;28;20041;-68
2023/06/07 00:45:25;;;;;;;6.90;3.00;;;;;;;16.81;58.87;101259.28;5052698;28;20052;-68
2023/06/07 00:47:52;;;;;;;16.77;3.80;;;;;;;16.93;58.62;101265.09;5052697;28;20057;-68
2023/06/07 00:50:19;;;;;;;5.60;3.58;;;;;;;16.72;58.55;101265.00;5052728;28;20061;-70
2023/06/07 00:52:46;;;;;;;7.72;3.10;;;;;;;16.71;58.86;101266.03;5052801;28;20045;-70
2023/06/07 00:55:13;;;;;;;7.82;2.95;;;;;;;16.60;59.12;101268.16;5052298;28;20143;-71
2023/06/07 00:57:40;;;;;;;8.25;3.13;;;;;;;16.73;58.90;101259.41;5052156;28;20045;-68
2023/06/07 01:00:13;;;;;;;7.68;3.35;;;;;;;16.57;58.96;101265.84;5050917;28;20045;-68
2023/06/07 01:02:41;;;;;;;6.28;3.22;;;;;;;16.49;59.10;101252.34;5041948;28;20053;-70
2023/06/07 01:09:51;;;;;;;13.02;3.75;;;;;;;16.69;58.73;101254.56;5047229;28;20047;-70
2023/06/07 01:12:19;;;;;;;11.05;3.60;;;;;;;16.69;58.90;101259.97;5063967;28;20395;-69
2023/06/07 01:14:48;;;;;;;11.68;3.25;;;;;;;16.77;58.94;101257.16;5070522;28;20040;-69
2023/06/07 01:17:17;;;;;;;6.38;3.00;;;;;;;16.76;58.96;101253.59;5069801;28;20102;-69
2023/06/07 01:19:51;;;;;;;10.75;3.92;;;;;;;16.71;58.57;101255.19;5070290;28;20044;-68
2023/06/07 01:22:20;;;;;;;9.65;3.35;;;;;;;16.60;59.01;101254.63;5059809;28;20447;-69
2023/06/07 01:24:48;;;;;;;5.85;3.58;;;;;;;16.62;58.85;101258.00;5069048;28;20076;-69
2023/06/07 01:27:15;;;;;;;7.30;3.30;;;;;;;16.62;58.38;101249.03;5069586;28;20385;-69
2023/06/07 01:29:44;;;;;;;6.18;3.30;;;;;;;16.51;58.41;101250.34;5070933;28;20056;-69
2023/06/07 01:32:12;;;;;;;7.28;3.85;;;;;;;16.60;58.08;101251.91;5053086;28;20165;-69
2023/06/07 01:34:41;;;;;;;4.88;2.97;;;;;;;16.66;57.65;101242.22;5070678;28;20074;-68
2023/06/07 01:37:07;;;;;;;5.72;3.28;;;;;;;16.63;57.49;101248.00;5069952;28;20106;-69
2023/06/07 01:39:36;;;;;;;4.30;2.92;;;;;;;16.49;57.31;101246.94;5053546;28;20045;-69
2023/06/07 01:42:03;;;;;;;9.95;3.47;;;;;;;16.56;57.53;101233.53;5050872;28;20103;-69
2023/06/07 01:44:31;;;;;;;6.00;3.28;;;;;;;16.54;57.32;101249.97;5051301;28;20490;-69
2023/06/07 01:46:57;;;;;;;7.57;3.10;;;;;;;16.41;56.93;101245.16;5050790;28;20118;-65
2023/06/07 01:49:24;;;;;;;5.50;3.15;;;;;;;16.48;57.05;101247.13;5048375;28;20357;-65
2023/06/07 01:51:50;;;;;;;5.57;3.00;;;;;;;16.32;57.30;101250.84;5051384;28;20056;-65
2023/06/07 01:54:18;;;;;;;5.63;2.92;;;;;;;16.36;56.75;101235.91;5050621;28;20045;-66
2023/06/07 01:57:04;;;;;;;9.05;3.70;;;;;;;16.33;56.92;101237.16;5050212;28;20114;-65
2023/06/07 01:59:53;;;;;;;4.95;2.83;;;;;;;16.43;56.74;101234.13;5050414;28;20485;-65
2023/06/07 02:02:32;;;;;;;7.00;3.50;;;;;;;16.31;57.01;101233.78;5051037;28;20040;-65
2023/06/07 02:05:03;;;;;;;5.32;3.47;;;;;;;16.21;57.10;101243.19;5049776;28;20349;-65
2023/06/07 02:07:35;;;;;;;6.82;3.35;;;;;;;16.27;56.98;101237.88;5050573;28;20049;-65
2023/06/07 02:10:03;;;;;;;7.25;3.28;;;;;;;16.20;55.91;101242.34;5050392;28;20452;-65
2023/06/07 02:12:32;;;;;;;5.97;3.50;;;;;;;16.21;55.47;101226.94;5064996;28;20044;-65
2023/06/07 02:15:00;;;;;;;8.57;3.45;;;;;;;16.12;56.20;101240.53;5070137;28;20094;-65
2023/06/07 02:17:28;;;;;;;6.93;3.55;;;;;;;16.39;55.42;101227.41;5069370;28;20064;-66
2023/06/07 02:19:55;;;;;;;6.00;3.72;;;;;;;16.27;54.10;101232.47;5068917;28;20052;-65
2023/06/07 02:22:21;;;;;;;6.88;3.45;;;;;;;16.42;54.83;101230.59;5069481;28;20049;-65
2023/06/07 02:24:48;;;;;;;12.07;3.60;;;;;;;16.42;55.11;101227.06;5069690;28;20048;-65
2023/06/07 02:27:14;;;;;;;6.18;3.40;;;;;;;16.29;54.99;101227.69;5069638;28;20047;-65
2023/06/07 02:29:41;;;;;;;6.32;3.33;;;;;;;16.30;54.92;101225.84;5070233;28;20073;-65
2023/06/07 02:32:08;;;;;;;7.13;3.78;;;;;;;16.29;54.34;101224.16;5069858;28;20076;-65
2023/06/07 02:34:34;;;;;;;7.65;3.88;;;;;;;16.35;54.08;101234.25;5069965;28;20067;-66
2023/06/07 02:37:01;;;;;;;7.03;3.33;;;;;;;16.46;53.78;101222.09;5069693;28;20127;-65
2023/06/07 02:39:28;;;;;;;8.45;3.47;;;;;;;16.50;53.52;101228.81;5054584;28;20174;-65
2023/06/07 02:41:55;;;;;;;8.52;2.90;;;;;;;16.41;53.58;101226.22;5049025;28;20083;-65
2023/06/07 02:44:21;;;;;;;5.97;3.20;;;;;;;16.18;52.67;101229.00;5049428;28;20507;-65
2023/06/07 02:46:48;;;;;;;10.02;3.22;;;;;;;16.18;52.59;101231.69;5049602;28;20419;-65
2023/06/07 02:49:14;;;;;;;4.38;3.10;;;;;;;16.24;52.58;101223.88;5048865;28;20049;-65
2023/06/07 02:51:42;;;;;;;8.45;3.40;;;;;;;16.26;52.33;101227.22;5049845;28;20049;-65
2023/06/07 02:54:09;;;;;;;6.10;2.90;;;;;;;16.25;52.70;101228.25;5049391;28;20626;-65
2023/06/07 02:56:36;;;;;;;10.10;3.90;;;;;;;16.22;52.42;101225.91;5049535;28;20044;-69
2023/06/07 02:59:02;;;;;;;9.07;3.13;;;;;;;16.19;52.52;101229.81;5038781;28;20053;-70
2023/06/07 03:01:31;;;;;;;6.60;3.33;;;;;;;16.25;52.33;101220.13;5049365;28;20041;-69
2023/06/07 03:03:57;;;;;;;15.38;3.40;;;;;;;16.17;52.68;101224.59;5053424;28;20518;-69
2023/06/07 03:06:29;;;;;;;6.43;3.28;;;;;;;16.12;52.18;101223.47;5053426;28;20489;-68
2023/06/07 03:08:57;;;;;;;6.65;3.10;;;;;;;16.19;51.79;101225.28;5052866;28;20075;-69
2023/06/07 03:11:23;;;;;;;7.95;3.08;;;;;;;16.34;51.95;101219.88;5058260;28;20052;-69
2023/06/07 03:13:50;;;;;;;12.60;3.53;;;;;;;16.33;51.53;101233.56;5073294;28;20048;-69
2023/06/07 03:16:16;;;;;;;7.10;3.10;;;;;;;16.27;51.89;101229.75;5072692;28;20041;-70
2023/06/07 03:18:43;;;;;;;7.38;3.15;;;;;;;16.25;51.86;101225.56;5073051;28;20052;-69
2023/06/07 03:21:09;;;;;;;9.90;3.42;;;;;;;16.10;51.46;101231.78;5073007;28;20048;-70
2023/06/07 03:23:36;;;;;;;9.07;3.97;;;;;;;16.17;51.36;101232.72;5072702;28;20102;-70
2023/06/07 03:26:03;;;;;;;9.30;3.63;;;;;;;16.18;51.39;101234.41;5072938;28;20044;-69
2023/06/07 03:28:29;;;;;;;7.72;3.50;;;;;;;16.27;51.34;101242.47;5071766;28;20049;-69
2023/06/07 03:30:56;;;;;;;4.47;3.05;;;;;;;16.32;51.29;101240.03;5055287;28;20045;-69
2023/06/07 03:33:23;;;;;;;8.15;3.30;;;;;;;16.25;50.98;101244.50;5052555;28;20037;-68
2023/06/07 03:35:49;;;;;;;5.07;3.42;;;;;;;16.27;51.21;101239.75;5053837;28;20550;-69
2023/06/07 03:38:16;;;;;;;7.00;3.20;;;;;;;16.13;51.55;101253.09;5059477;28;20094;-68
2023/06/07 03:40:42;;;;;;;10.57;3.30;;;;;;;16.35;51.37;101250.50;5072789;28;20484;-69
2023/06/07 03:43:09;;;;;;;7.10;3.60;;;;;;;16.36;51.60;101238.63;5072905;28;20113;-68
2023/06/07 03:45:36;;;;;;;5.60;3.40;;;;;;;16.44;51.34;101243.97;5052112;28;20036;-64
2023/06/07 03:48:02;;;;;;;7.57;3.45;;;;;;;16.39;51.64;101236.38;5052253;28;20147;-64
2023/06/07 03:50:29;;;;;;;8.40;3.05;;;;;;;16.48;51.26;101242.56;5052982;28;20040;-64
2023/06/07 03:52:56;;;;;;;5.93;3.33;;;;;;;16.47;51.43;101243.59;5052783;28;20053;-65
2023/06/07 03:55:22;;;;;;;6.68;3.45;;;;;;;16.48;51.86;101245.28;5052698;28;20091;-66
2023/06/07 03:57:49;;;;;;;8.27;4.25;;;;;;;16.46;51.52;101239.19;5053641;28;20464;-64
2023/06/07 04:00:17;;;;;;;8.63;3.75;;;;;;;16.47;51.78;101237.31;5053143;28;20118;-65
2023/06/07 04:02:44;;;;;;;4.70;3.33;;;;;;;16.58;51.81;101236.91;5053047;28;20079;-65
2023/06/07 04:05:11;;;;;;;7.32;3.60;;;;;;;16.62;52.05;101241.75;5053112;28;20049;-64
2023/06/07 04:07:40;;;;;;;7.70;3.45;;;;;;;16.65;51.99;101233.25;5053004;28;20053;-66
2023/06/07 04:10:07;;;;;;;9.35;3.60;;;;;;;16.60;51.86;101238.38;5052854;28;20059;-66
2023/06/07 04:12:33;;;;;;;6.13;3.00;;;;;;;16.71;52.34;101228.09;5067963;28;20049;-66
2023/06/07 04:15:00;;;;;;;13.57;3.65;;;;;;;16.63;52.34;101240.72;5072073;28;20467;-64
2023/06/07 04:17:27;;;;;;;9.40;3.42;;;;;;;16.72;52.25;101238.75;5071990;28;20400;-64
2023/06/07 04:19:56;;;;;;;6.30;3.40;;;;;;;16.60;52.45;101248.38;5072655;28;20049;-64
2023/06/07 04:22:24;;;;;;;4.82;3.08;;;;;;;16.74;52.40;101238.56;5070641;28;20438;-66
2023/06/07 04:24:51;;;;;;;6.47;3.65;;;;;;;16.82;51.99;101239.31;5072033;28;20048;-64
2023/06/07 04:27:18;;;;;;;8.13;3.15;;;;;;;16.88;52.15;101238.53;5071515;28;20052;-64
2023/06/07 04:29:48;;;;;;;5.88;3.45;;;;;;;16.93;51.96;101237.97;5071588;28;20044;-65
2023/06/07 04:32:18;;;;;;;6.65;3.53;;;;;;;16.98;52.15;101240.09;5072003;28;20093;-66
2023/06/07 04:34:46;;;;;;;8.95;3.10;;;;;;;17.04;51.89;101231.22;5071825;28;20052;-67
2023/06/07 04:37:12;;;;;;;7.25;3.33;;;;;;;17.08;51.68;101236.06;5072121;28;20203;-67
2023/06/07 04:39:40;;;;;;;9.93;3.53;;;;;;;17.05;51.33;101235.59;5071977;28;20090;-67
2023/06/07 04:42:09;;;;;;;6.97;3.47;;;;;;;17.05;50.47;101236.44;5070477;28;20392;-65
2023/06/07 04:44:37;;;;;;;10.63;3.80;;;;;;;16.90;54.20;101233.78;5071607;28;20044;-65
2023/06/07 04:47:04;;;;;;;8.50;3.85;;;;;;;16.90;53.85;101239.19;5071779;28;20106;-66
2023/06/07 04:49:38;;;;;;;9.50;3.45;;;;;;;16.79;53.02;101239.69;5071085;28;20044;-65
2023/06/07 04:52:05;;;;;;;13.27;3.72;;;;;;;16.85;54.18;101247.06;5071438;28;20096;-65
2023/06/07 04:54:32;;;;;;;8.27;3.30;;;;;;;16.80;53.13;101240.53;5070800;28;20045;-71
2023/06/07 04:56:58;;;;;;;10.25;3.80;;;;;;;16.81;52.96;101245.72;5071866;28;20062;-71
2023/06/07 04:59:25;;;;;;;11.02;3.25;;;;;;;16.76;52.65;101245.47;5071249;28;20087;-71
2023/06/07 05:01:52;;;;;;;8.35;3.35;;;;;;;16.92;52.68;101241.72;5072309;28;20048;-72
2023/06/07 05:04:19;;;;;;;8.50;3.80;;;;;;;17.03;52.45;101243.94;5072171;28;20040;-72
2023/06/07 05:06:46;;;;;;;11.68;3.65;;;;;;;16.90;52.11;101241.06;5071895;28;20056;-71
2023/06/07 05:09:13;;;;;;;8.77;2.92;;;;;;;17.07;54.56;101241.69;5071223;28;20072;-71
2023/06/07 05:11:40;;;;;;;15.00;3.95;;;;;;;16.89;51.67;101242.09;5071112;28;20032;-71
2023/06/07 05:14:06;;;;;;;9.85;3.67;;;;;;;17.00;51.45;101252.44;5071185;28;20044;-69
2023/06/07 05:16:33;;;;;;;12.70;3.33;;;;;;;17.01;51.05;101240.56;5070372;28;20071;-70
2023/06/07 05:19:03;;;;;;;8.98;3.47;;;;;;;17.11;51.22;101243.81;5053212;28;20040;-71
2023/06/07 05:21:30;;;;;;;15.00;3.40;;;;;;;17.22;50.28;101252.50;5070985;28;20474;-71
2023/06/07 05:23:57;;;;;;;11.50;3.70;;;;;;;17.21;50.22;101248.94;5069558;28;20443;-72
2023/06/07 05:26:23;;;;;;;6.53;3.47;;;;;;;17.41;51.67;101251.91;5070861;28;20066;-69
2023/06/07 05:28:51;;;;;;;8.25;3.58;;;;;;;17.41;49.85;101256.50;5072165;28;20102;-70
2023/06/07 05:31:18;;;;;;;17.33;3.97;;;;;;;17.49;48.80;101249.06;5070700;28;20458;-70
2023/06/07 05:33:45;;;;;;;6.10;3.42;;;;;;;17.33;48.71;101255.53;5069873;28;20381;-64
2023/06/07 05:36:12;;;;;;;9.15;3.42;;;;;;;17.47;48.06;101255.72;5071078;28;20036;-64
2023/06/07 05:38:38;;;;;;;13.30;3.65;;;;;;;17.55;47.75;101252.88;5043662;28;20094;-71
2023/06/07 05:41:05;;;;;;;10.88;3.40;;;;;;;17.52;47.50;101254.09;5050558;28;20052;-70
2023/06/07 05:43:36;;;;;;;16.50;3.42;;;;;;;17.48;47.35;101250.09;5049260;28;20037;-72
2023/06/07 05:46:07;;;;;;;10.00;3.65;;;;;;;17.49;47.11;101249.06;5050583;28;20128;-71
2023/06/07 05:48:33;;;;;;;10.93;3.65;;;;;;;17.57;47.56;101246.22;5050641;28;20068;-71
2023/06/07 05:51:00;;;;;;;6.63;2.92;;;;;;;17.46;45.80;101246.72;5050531;28;20044;-71
2023/06/07 05:53:27;;;;;;;9.73;3.28;;;;;;;17.60;46.57;101255.84;5050270;28;20091;-71
2023/06/07 05:55:55;;;;;;;13.65;3.67;;;;;;;17.68;45.41;101252.16;5049026;28;20071;-71
2023/06/07 05:58:22;;;;;;;8.27;3.40;;;;;;;17.71;46.00;101255.31;5051056;28;20040;-72
2023/06/07 06:00:49;;;;;;;8.65;3.10;;;;;;;17.70;46.34;101255.53;5032607;28;20417;-71
2023/06/07 06:03:18;;;;;;;11.88;3.67;;;;;;;17.71;46.49;101249.06;5050362;28;20056;-72
2023/06/07 06:05:44;;;;;;;7.20;3.33;;;;;;;17.79;45.31;101255.22;5049170;28;20045;-72
2023/06/07 06:08:12;;;;;;;8.70;3.08;;;;;;;17.77;45.47;101248.28;5050047;28;20048;-72
2023/06/07 06:10:40;;;;;;;9.88;3.00;;;;;;;17.93;45.87;101253.44;5049363;28;20045;-71
2023/06/07 06:13:06;;;;;;;14.55;3.47;;;;;;;17.94;45.40;101252.41;5070237;28;20068;-72
2023/06/07 06:15:33;;;;;;;6.07;3.42;;;;;;;17.88;45.01;101250.47;5069688;28;20515;-72
2023/06/07 06:17:59;;;;;;;10.02;3.28;;;;;;;17.90;45.57;101258.44;5069444;28;20096;-73
2023/06/07 06:20:26;;;;;;;6.25;2.83;;;;;;;17.69;45.23;101254.69;5070143;28;20120;-72
2023/06/07 06:22:53;;;;;;;11.75;3.33;;;;;;;17.76;46.00;101255.59;5052246;28;20106;-72
2023/06/07 06:25:19;;;;;;;7.45;3.30;;;;;;;18.00;45.44;101262.47;5070541;28;20040;-72
2023/06/07 06:27:46;;;;;;;10.98;3.42;;;;;;;18.03;45.93;101259.38;5069766;28;20403;-72
2023/06/07 06:30:13;;;;;;;10.98;4.03;;;;;;;18.10;46.32;101262.16;5069704;28;20484;-72
2023/06/07 06:32:40;;;;;;;9.93;3.17;;;;;;;18.15;44.84;101265.13;5069572;28;20468;-71
2023/06/07 06:35:07;;;;;;;9.98;3.90;;;;;;;18.23;45.75;101272.28;5070101;28;20462;-72
2023/06/07 06:37:33;;;;;;;11.35;3.95;;;;;;;18.25;44.52;101271.06;5069720;28;20041;-66
2023/06/07 06:40:00;;;;;;;7.57;3.33;;;;;;;18.17;44.54;101267.63;5047485;28;20048;-65
2023/06/07 06:42:27;;;;;;;11.18;3.75;;;;;;;18.39;45.62;101271.16;5049657;28;20099;-65
2023/06/07 06:44:53;;;;;;;19.45;3.80;;;;;;;18.48;44.80;101269.94;5049307;28;20041;-67
2023/06/07 06:47:20;;;;;;;9.15;3.47;;;;;;;18.44;44.93;101269.50;5049964;28;20052;-66
2023/06/07 06:49:46;;;;;;;12.65;3.67;;;;;;;18.58;44.55;101266.88;5049678;28;20077;-66
2023/06/07 06:52:13;;;;;;;13.68;3.38;;;;;;;18.55;43.90;101268.97;5050040;28;20052;-66
2023/06/07 06:54:39;;;;;;;11.38;3.60;;;;;;;18.49;43.35;101263.50;5048958;28;20503;-67
2023/06/07 06:57:08;;;;;;;11.15;3.72;;;;;;;18.48;43.61;101270.81;5050123;28;20095;-64
2023/06/07 06:59:35;;;;;;;10.75;3.10;;;;;;;18.60;43.16;101272.97;5049654;28;20045;-65
2023/06/07 07:02:02;;;;;;;14.38;3.13;;;;;;;18.69;42.54;101279.94;5049546;28;20072;-65
2023/06/07 07:04:29;;;;;;;13.07;3.60;;;;;;;18.79;43.12;101267.63;5049465;28;20045;-66
2023/06/07 07:06:55;;;;;;;13.15;3.13;;;;;;;18.82;41.77;101269.09;5048916;28;20088;-65
2023/06/07 07:09:22;;;;;;;10.30;3.58;;;;;;;18.98;42.03;101276.94;5049136;28;20040;-64
2023/06/07 07:11:49;;;;;;;11.02;3.08;;;;;;;18.60;42.34;101272.97;5030785;28;20408;-65
2023/06/07 07:14:15;;;;;;;19.17;3.50;;;;;;;18.66;42.08;101272.16;5048878;28;20092;-63
2023/06/07 07:16:42;;;;;;;13.10;3.42;;;;;;;18.74;41.63;101272.00;5049486;28;20051;-63
2023/06/07 07:19:09;;;;;;;8.40;3.45;;;;;;;18.89;41.79;101269.13;5049034;28;20489;-63
2023/06/07 07:21:37;;;;;;;8.15;3.40;;;;;;;19.15;41.84;101276.59;5048969;28;20511;-63
2023/06/07 07:24:04;;;;;;;9.48;3.40;;;;;;;18.95;41.07;101274.63;5049389;28;20467;-63
2023/06/07 07:26:30;;;;;;;11.60;3.78;;;;;;;18.94;41.03;101270.25;5049018;28;20051;-63
2023/06/07 07:28:57;;;;;;;11.93;3.03;;;;;;;19.22;41.60;101263.88;5049740;28;20412;-64
2023/06/07 07:31:23;;;;;;;9.07;3.65;;;;;;;19.28;41.46;101273.94;5049444;28;20064;-67
2023/06/07 07:33:50;;;;;;;13.18;3.70;;;;;;;19.39;40.71;101276.06;5049545;28;20045;-64
2023/06/07 07:36:17;;;;;;;12.27;3.70;;;;;;;19.45;40.68;101275.25;5049379;28;20060;-64
2023/06/07 07:38:45;;;;;;;10.65;3.35;;;;;;;19.66;40.32;101274.22;5039364;28;20132;-64
2023/06/07 07:41:14;;;;;;;9.93;3.60;;;;;;;19.69;40.51;101281.16;5029537;28;20045;-64
2023/06/07 07:43:41;;;;;;;11.23;3.05;;;;;;;19.72;41.26;101275.28;5030162;28;20047;-65
2023/06/07 07:46:07;;;;;;;16.20;4.03;;;;;;;19.96;41.00;101277.41;5049474;28;20049;-64
2023/06/07 07:48:34;;;;;;;11.63;3.65;;;;;;;19.79;40.02;101278.03;5052397;28;20390;-64
2023/06/07 07:51:02;;;;;;;9.43;3.20;;;;;;;19.89;40.54;101279.28;5053265;28;20049;-64
2023/06/07 07:53:28;;;;;;;13.98;3.47;;;;;;;19.73;40.44;101279.72;5052159;28;20045;-63
2023/06/07 07:55:55;;;;;;;8.60;4.50;;;;;;;20.20;40.60;101265.03;5053529;28;20044;-63
2023/06/07 07:58:22;;;;;;;9.10;3.17;;;;;;;20.36;40.66;101268.41;5053435;28;20044;-64
2023/06/07 08:00:48;;;;;;;16.10;3.78;;;;;;;20.43;39.81;101269.25;5052492;28;20048;-64
2023/06/07 08:03:15;;;;;;;9.00;3.85;;;;;;;20.18;39.24;101274.50;5052454;28;20041;-64
2023/06/07 08:05:42;;;;;;;9.25;3.53;;;;;;;20.38;39.55;101267.09;5052785;28;20049;-64
2023/06/07 08:08:08;;;;;;;9.88;3.95;;;;;;;20.18;40.16;101271.78;5053222;28;20098;-64
2023/06/07 08:10:35;;;;;;;10.98;3.83;;;;;;;20.32;39.92;101265.25;5052525;28;20492;-64
2023/06/07 08:13:01;;;;;;;6.50;3.25;;;;;;;20.38;40.43;101272.56;5069993;28;20118;-65
2023/06/07 08:15:28;;;;;;;7.38;3.60;;;;;;;20.54;39.65;101270.47;5072900;28;20048;-65
2023/06/07 08:17:55;;;;;;;9.07;3.17;;;;;;;20.52;38.82;101264.41;5072525;28;20346;-65
2023/06/07 08:20:21;;;;;;;8.23;3.47;;;;;;;20.44;39.24;101266.31;5070718;28;20048;-63
2023/06/07 08:22:50;;;;;;;9.77;3.42;;;;;;;20.43;39.34;101263.81;5052731;28;20404;-63
2023/06/07 08:25:17;;;;;;;10.23;3.65;;;;;;;20.64;38.94;101269.00;5052185;28;20106;-63
2023/06/07 08:27:46;;;;;;;14.38;3.80;;;;;;;20.79;39.27;101257.00;5052009;28;20077;-66
2023/06/07 08:30:13;;;;;;;8.02;3.50;;;;;;;21.00;38.40;101264.03;5041444;28;20056;-64
2023/06/07 08:32:41;;;;;;;7.75;3.47;;;;;;;20.89;38.86;101260.09;5052643;28;20051;-64
2023/06/07 08:35:10;;;;;;;12.80;3.78;;;;;;;21.05;38.96;101267.81;5052551;28;20136;-64
2023/06/07 08:37:37;;;;;;;12.10;3.60;;;;;;;21.21;38.61;101260.19;5052006;28;20041;-64
2023/06/07 08:40:05;;;;;;;5.85;2.97;;;;;;;21.12;38.38;101263.19;5051912;28;20488;-64
2023/06/07 08:42:33;;;;;;;8.55;3.60;;;;;;;21.22;38.65;101268.19;5052341;28;20406;-64
2023/06/07 08:45:01;;;;;;;9.07;3.33;;;;;;;21.57;37.82;101265.03;5052141;28;20429;-65
2023/06/07 08:47:29;;;;;;;10.13;3.00;;;;;;;21.38;37.83;101261.34;5051997;28;20048;-65
2023/06/07 08:49:57;;;;;;;10.32;3.28;;;;;;;21.19;38.19;101263.16;5052017;28;20059;-66
2023/06/07 08:52:25;;;;;;;12.15;3.22;;;;;;;21.06;38.44;101260.44;5051860;28;20436;-64
2023/06/07 08:54:58;;;;;;;10.05;3.13;;;;;;;21.27;37.83;101262.06;5052205;28;20047;-65
2023/06/07 08:57:26;;;;;;;13.05;3.10;;;;;;;21.49;37.73;101262.53;5051835;28;20047;-65
2023/06/07 08:59:52;;;;;;;8.27;3.20;;;;;;;21.65;37.81;101258.47;5050929;28;20045;-66
2023/06/07 09:02:24;;;;;;;12.13;2.75;;;;;;;21.76;37.36;101257.75;5051756;28;20041;-66
2023/06/07 09:04:51;;;;;;;7.47;3.00;;;;;;;21.79;37.77;101265.50;5052402;28;20083;-65
2023/06/07 09:07:17;;;;;;;10.20;3.35;;;;;;;22.16;37.46;101255.56;5051878;28;20478;-64
2023/06/07 09:09:44;;;;;;;7.82;2.95;;;;;;;22.61;36.56;101257.25;5058542;28;20433;-71
2023/06/07 09:12:11;;;;;;;9.18;2.85;;;;;;;22.90;36.39;101252.88;5072076;28;20060;-72
2023/06/07 09:14:38;;;;;;;19.98;3.35;;;;;;;23.42;34.83;101245.88;5054579;28;20079;-70
2023/06/07 09:17:04;;;;;;;6.00;3.42;;;;;;;23.31;35.26;101249.41;5070557;28;20075;-71
2023/06/07 09:19:38;;;;;;;11.52;3.35;;;;;;;23.69;34.66;101251.78;5070429;28;20044;-70
2023/06/07 09:22:07;;;;;;;18.02;2.72;;;;;;;24.15;33.73;101249.38;5070825;28;20048;-71
2023/06/07 09:24:35;;;;;;;8.10;2.85;;;;;;;24.31;33.20;101248.66;5070518;28;20447;-72
2023/06/07 09:27:04;;;;;;;9.20;3.10;;;;;;;24.07;33.64;101247.00;5069135;28;20044;-71
2023/06/07 09:29:41;;;;;;;5.75;2.58;;;;;;;24.96;32.10;101239.38;5070047;28;20064;-72
2023/06/07 09:32:19;;;;;;;10.45;3.03;;;;;;;25.34;31.74;101240.69;5070851;28;20045;-71
2023/06/07 09:34:46;;;;;;;8.48;2.65;;;;;;;24.77;33.19;101243.38;5070525;28;20093;-69
2023/06/07 09:37:20;;;;;;;7.82;2.67;;;;;;;24.95;32.63;101236.88;5071347;28;20062;-69
2023/06/07 09:39:52;;;;;;;8.97;2.27;;;;;;;25.64;31.22;101236.84;5052429;28;20069;-70
2023/06/07 09:42:19;;;;;;;10.73;3.28;;;;;;;25.73;30.98;101238.09;5032629;28;20040;-70
2023/06/07 09:44:46;;;;;;;11.05;3.35;;;;;;;25.18;30.99;101231.31;5031782;28;20047;-69
2023/06/07 09:47:23;;;;;;;8.43;3.00;;;;;;;24.98;32.28;101233.63;5050684;28;20041;-70
2023/06/07 09:49:54;;;;;;;10.95;2.70;;;;;;;25.15;32.06;101229.91;5051248;28;20048;-71
2023/06/07 09:52:22;;;;;;;7.32;2.60;;;;;;;25.77;31.59;101222.78;5050730;28;20043;-69
2023/06/07 09:54:49;;;;;;;12.95;2.92;;;;;;;26.59;30.41;101223.97;5047823;28;20048;-69
2023/06/07 09:57:24;;;;;;;8.65;2.88;;;;;;;26.73;29.17;101219.78;5050926;28;20069;-69
2023/06/07 10:00:22;;;;;;;7.55;2.53;;;;;;;25.88;30.69;101227.34;5050718;28;20045;-71
2023/06/07 10:02:49;;;;;;;7.28;2.38;;;;;;;25.88;30.87;101227.34;5049755;28;20484;-71
2023/06/07 10:05:21;;;;;;;13.98;2.63;;;;;;;25.56;30.96;101227.91;5050032;28;20124;-72
2023/06/07 10:07:49;;;;;;;5.35;2.80;;;;;;;26.67;29.37;101224.38;5049467;28;20463;-70
2023/06/07 10:10:19;;;;;;;7.50;3.10;;;;;;;26.43;29.91;101222.97;5049233;28;20103;-69
2023/06/07 10:12:48;;;;;;;4.78;2.95;;;;;;;26.48;30.12;101218.38;5067326;28;20454;-71
2023/06/07 10:15:21;;;;;;;7.30;2.60;;;;;;;26.91;29.88;101216.72;5070305;28;20140;-71
2023/06/07 10:17:54;;;;;;;7.13;3.03;;;;;;;26.86;29.43;101218.56;5069157;28;20044;-69
2023/06/07 10:20:30;;;;;;;12.45;3.10;;;;;;;27.08;29.63;101221.31;5070727;28;20044;-70
2023/06/07 10:23:04;;;;;;;10.07;2.70;;;;;;;27.77;29.11;101215.09;5069411;28;20049;-69
2023/06/07 10:26:17;;;;;;;12.55;3.08;;;;;;;28.55;27.98;101209.84;5070333;28;20048;-69
2023/06/07 10:29:01;;;;;;;11.65;3.00;;;;;;;27.99;28.96;101206.72;5068954;28;20064;-70
2023/06/07 10:31:35;;;;;;;8.73;2.67;;;;;;;28.00;28.94;101200.13;5070228;28;20086;-69
2023/06/07 10:34:07;;;;;;;11.55;2.78;;;;;;;28.22;28.39;101209.09;5070773;28;20044;-69
2023/06/07 10:36:38;;;;;;;10.90;3.15;;;;;;;26.68;29.87;101203.19;5070048;28;20048;-71
2023/06/07 10:39:06;;;;;;;12.32;4.07;;;;;;;26.51;30.11;101206.84;5057917;28;20127;-70
2023/06/07 10:41:35;;;;;;;9.32;2.72;;;;;;;26.06;30.56;101210.56;5050292;28;20094;-71
2023/06/07 10:44:02;;;;;;;5.63;2.60;;;;;;;26.27;30.84;101183.41;5050511;28;20094;-70
2023/06/07 10:46:29;;;;;;;6.68;2.97;;;;;;;26.96;30.09;101191.16;5048487;28;20076;-70
2023/06/07 10:48:56;;;;;;;6.53;2.72;;;;;;;26.81;29.95;101193.75;5049655;28;20072;-70
2023/06/07 10:51:41;;;;;;;6.47;2.80;;;;;;;26.43;29.71;101193.53;5032733;28;20481;-69
2023/06/07 10:54:08;;;;;;;6.20;2.88;;;;;;;26.54;30.99;101189.81;5048751;28;20045;-69
2023/06/07 10:56:36;;;;;;;6.20;2.67;;;;;;;26.25;31.58;101188.34;5049460;28;20098;-69
2023/06/07 10:59:18;;;;;;;6.57;2.70;;;;;;;26.72;29.58;101185.91;5049245;28;20132;-69
2023/06/07 11:01:46;;;;;;;9.70;2.90;;;;;;;25.80;28.95;101192.88;5049531;28;20488;-70
2023/06/07 11:04:33;;;;;;;12.93;3.10;;;;;;;25.77;29.74;101184.31;5049280;28;20049;-68
2023/06/07 11:07:25;;;;;;;7.18;3.10;;;;;;;25.56;30.26;101183.94;5048412;28;20067;-70
2023/06/07 11:10:10;;;;;;;6.80;2.83;;;;;;;25.29;30.56;101180.16;5048974;28;20087;-68
2023/06/07 11:12:42;;;;;;;7.82;2.65;;;;;;;25.11;31.72;101182.06;5049455;28;20499;-71
2023/06/07 11:15:31;;;;;;;7.38;2.85;;;;;;;24.90;32.09;101182.72;5050230;28;20123;-68
2023/06/07 11:18:07;;;;;;;8.73;2.90;;;;;;;25.03;32.23;101171.47;5049885;28;20045;-69
2023/06/07 11:20:44;;;;;;;5.45;2.80;;;;;;;24.61;32.82;101169.00;5048385;28;20106;-69
2023/06/07 11:23:27;;;;;;;8.00;2.85;;;;;;;24.49;30.81;101176.41;5052258;28;20416;-70
2023/06/07 11:25:56;;;;;;;8.13;2.83;;;;;;;24.43;30.99;101185.59;5053879;28;20124;-68
2023/06/07 11:28:23;;;;;;;11.05;3.00;;;;;;;24.63;31.08;101175.06;5054340;28;20392;-71
2023/06/07 11:30:51;;;;;;;5.20;2.58;;;;;;;24.38;30.96;101175.34;5053561;28;20071;-69
2023/06/07 11:33:20;;;;;;;11.02;3.30;;;;;;;24.55;31.00;101178.19;5053124;28;20473;-69